sensor_id;sensor_type;location;lat;lon;timestamp;pressure;altitude;pressure_sealevel;temperature;humidity
21956;BME280;11142;49.930;8.606;2023-03-01T00:00:01;101214.19;;;-0.43;100.00
21956;BME280;11142;49.930;8.606;2023-03-01T00:02:37;101218.44;;;-0.31;100.00
21956;BME280;11142;49.930;8.606;2023-03-01T00:05:06;101214.19;;;-0.28;100.00
21956;BME280;11142;49.930;8.606;2023-03-01T00:07:35;101219.28;;;-0.28;100.00
21956;BME280;11142;49.930;8.606;2023-03-01T00:10:05;101215.03;;;-0.27;100.00
21956;BME280;11142;49.930;8.606;2023-03-01T00:12:35;101224.38;;;-0.31;100.00
21956;BME280;11142;49.930;8.606;2023-03-01T00:15:04;101223.53;;;-0.34;100.00
21956;BME280;11142;49.930;8.606;2023-03-01T00:17:32;101229.47;;;-0.31;100.00
21956;BME280;11142;49.930;8.606;2023-03-01T00:20:00;101221.00;;;-0.42;100.00
21956;BME280;11142;49.930;8.606;2023-03-01T00:22:29;101221.00;;;-0.54;100.00
21956;BME280;11142;49.930;8.606;2023-03-01T00:24:58;101222.69;;;-0.59;100.00
21956;BME280;11142;49.930;8.606;2023-03-01T00:27:28;101220.97;;;-0.57;100.00
21956;BME280;11142;49.930;8.606;2023-03-01T00:29:56;101215.88;;;-0.57;100.00
21956;BME280;11142;49.930;8.606;2023-03-01T00:32:24;101218.44;;;-0.56;100.00
21956;BME280;11142;49.930;8.606;2023-03-01T00:34:52;101209.13;;;-0.64;100.00
21956;BME280;11142;49.930;8.606;2023-03-01T00:37:22;101202.31;;;-0.65;100.00
21956;BME280;11142;49.930;8.606;2023-03-01T00:39:50;101203.16;;;-0.66;100.00
21956;BME280;11142;49.930;8.606;2023-03-01T00:42:18;101196.38;;;-0.76;100.00
21956;BME280;11142;49.930;8.606;2023-03-01T00:44:52;101198.91;;;-0.69;100.00
21956;BME280;11142;49.930;8.606;2023-03-01T00:47:24;101197.22;;;-0.71;100.00
21956;BME280;11142;49.930;8.606;2023-03-01T00:49:52;101188.72;;;-0.76;100.00
21956;BME280;11142;49.930;8.606;2023-03-01T00:52:20;101192.97;;;-0.83;100.00
21956;BME280;11142;49.930;8.606;2023-03-01T00:54:52;101187.00;;;-0.79;100.00
21956;BME280;11142;49.930;8.606;2023-03-01T00:57:20;101186.19;;;-0.76;100.00
21956;BME280;11142;49.930;8.606;2023-03-01T00:59:50;101184.47;;;-0.68;100.00
21956;BME280;11142;49.930;8.606;2023-03-01T01:02:20;101182.75;;;-0.56;100.00
21956;BME280;11142;49.930;8.606;2023-03-01T01:04:48;101183.63;;;-0.49;100.00
21956;BME280;11142;49.930;8.606;2023-03-01T01:07:17;101175.97;;;-0.44;100.00
21956;BME280;11142;49.930;8.606;2023-03-01T01:09:47;101176.81;;;-0.47;100.00
21956;BME280;11142;49.930;8.606;2023-03-01T01:12:16;101172.59;;;-0.51;100.00
21956;BME280;11142;49.930;8.606;2023-03-01T01:14:45;101171.69;;;-0.41;100.00
21956;BME280;11142;49.930;8.606;2023-03-01T01:17:15;101167.47;;;-0.69;100.00
21956;BME280;11142;49.930;8.606;2023-03-01T01:19:43;101158.13;;;-0.94;100.00
21956;BME280;11142;49.930;8.606;2023-03-01T01:22:11;101153.88;;;-1.08;100.00
21956;BME280;11142;49.930;8.606;2023-03-01T01:24:40;101150.50;;;-0.94;100.00
21956;BME280;11142;49.930;8.606;2023-03-01T01:27:10;101147.09;;;-0.99;100.00
21956;BME280;11142;49.930;8.606;2023-03-01T01:29:38;101137.75;;;-0.94;100.00
21956;BME280;11142;49.930;8.606;2023-03-01T01:32:06;101136.06;;;-0.88;100.00
21956;BME280;11142;49.930;8.606;2023-03-01T01:34:36;101143.72;;;-0.80;100.00
21956;BME280;11142;49.930;8.606;2023-03-01T01:37:04;101136.91;;;-0.71;100.00
21956;BME280;11142;49.930;8.606;2023-03-01T01:39:34;101143.72;;;-0.64;100.00
21956;BME280;11142;49.930;8.606;2023-03-01T01:42:02;101140.28;;;-0.79;100.00
21956;BME280;11142;49.930;8.606;2023-03-01T01:44:33;101134.34;;;-0.72;100.00
21956;BME280;11142;49.930;8.606;2023-03-01T01:47:02;101136.91;;;-0.75;100.00
21956;BME280;11142;49.930;8.606;2023-03-01T01:49:32;101136.06;;;-0.55;100.00
21956;BME280;11142;49.930;8.606;2023-03-01T01:52:07;101135.19;;;-0.46;100.00
21956;BME280;11142;49.930;8.606;2023-03-01T01:54:38;101131.72;;;-0.25;100.00
21956;BME280;11142;49.930;8.606;2023-03-01T01:57:07;101131.69;;;-0.09;100.00
21956;BME280;11142;49.930;8.606;2023-03-01T01:59:36;101127.34;;;0.15;100.00
21956;BME280;11142;49.930;8.606;2023-03-01T02:02:05;101125.63;;;0.21;100.00
21956;BME280;11142;49.930;8.606;2023-03-01T02:04:33;101137.59;;;0.01;100.00
21956;BME280;11142;49.930;8.606;2023-03-01T02:07:03;101131.72;;;-0.21;100.00
21956;BME280;11142;49.930;8.606;2023-03-01T02:09:35;101133.50;;;-0.48;100.00
21956;BME280;11142;49.930;8.606;2023-03-01T02:12:04;101135.22;;;-0.67;100.00
21956;BME280;11142;49.930;8.606;2023-03-01T02:14:36;101131.81;;;-0.72;100.00
21956;BME280;11142;49.930;8.606;2023-03-01T02:17:04;101133.53;;;-0.74;100.00
21956;BME280;11142;49.930;8.606;2023-03-01T02:19:37;101136.91;;;-0.81;100.00
21956;BME280;11142;49.930;8.606;2023-03-01T02:22:11;101134.34;;;-0.72;100.00
21956;BME280;11142;49.930;8.606;2023-03-01T02:24:50;101129.25;;;-0.60;100.00
21956;BME280;11142;49.930;8.606;2023-03-01T02:27:26;101121.59;;;-0.57;100.00
21956;BME280;11142;49.930;8.606;2023-03-01T02:29:58;101121.63;;;-0.54;100.00
21956;BME280;11142;49.930;8.606;2023-03-01T02:32:26;101118.22;;;-0.59;100.00
21956;BME280;11142;49.930;8.606;2023-03-01T02:34:55;101111.41;;;-0.69;100.00
21956;BME280;11142;49.930;8.606;2023-03-01T02:37:23;101113.97;;;-0.71;100.00
21956;BME280;11142;49.930;8.606;2023-03-01T02:39:55;101107.16;;;-0.63;100.00
21956;BME280;11142;49.930;8.606;2023-03-01T02:42:26;101097.84;;;-0.58;100.00
21956;BME280;11142;49.930;8.606;2023-03-01T02:44:54;101103.75;;;-0.46;100.00
21956;BME280;11142;49.930;8.606;2023-03-01T02:47:23;101100.34;;;-0.50;100.00
21956;BME280;11142;49.930;8.606;2023-03-01T02:49:51;101096.94;;;-0.43;100.00
21956;BME280;11142;49.930;8.606;2023-03-01T02:54:59;101087.59;;;-0.47;100.00
21956;BME280;11142;49.930;8.606;2023-03-01T02:57:29;101090.13;;;-0.41;100.00
21956;BME280;11142;49.930;8.606;2023-03-01T02:59:59;101079.91;;;-0.41;100.00
21956;BME280;11142;49.930;8.606;2023-03-01T03:02:37;101078.25;;;-0.43;100.00
21956;BME280;11142;49.930;8.606;2023-03-01T03:05:20;101069.75;;;-0.50;100.00
21956;BME280;11142;49.930;8.606;2023-03-01T03:07:53;101068.06;;;-0.49;100.00
21956;BME280;11142;49.930;8.606;2023-03-01T03:10:23;101063.81;;;-0.49;100.00
21956;BME280;11142;49.930;8.606;2023-03-01T03:12:53;101056.19;;;-0.55;100.00
21956;BME280;11142;49.930;8.606;2023-03-01T03:15:22;101059.59;;;-0.51;100.00
21956;BME280;11142;49.930;8.606;2023-03-01T03:17:52;101062.97;;;-0.48;100.00
21956;BME280;11142;49.930;8.606;2023-03-01T03:20:21;101050.22;;;-0.46;100.00
21956;BME280;11142;49.930;8.606;2023-03-01T03:22:52;101052.81;;;-0.59;100.00
21956;BME280;11142;49.930;8.606;2023-03-01T03:25:20;101050.25;;;-0.60;100.00
21956;BME280;11142;49.930;8.606;2023-03-01T03:27:50;101045.16;;;-0.65;100.00
21956;BME280;11142;49.930;8.606;2023-03-01T03:30:23;101046.03;;;-0.67;100.00
21956;BME280;11142;49.930;8.606;2023-03-01T03:32:54;101050.25;;;-0.63;100.00
21956;BME280;11142;49.930;8.606;2023-03-01T03:35:23;101038.38;;;-0.61;100.00
21956;BME280;11142;49.930;8.606;2023-03-01T03:37:54;101042.59;;;-0.52;100.00
21956;BME280;11142;49.930;8.606;2023-03-01T03:40:33;101045.16;;;-0.66;100.00
21956;BME280;11142;49.930;8.606;2023-03-01T03:43:02;101037.47;;;-0.45;100.00
21956;BME280;11142;49.930;8.606;2023-03-01T03:45:31;101043.38;;;-0.40;100.00
21956;BME280;11142;49.930;8.606;2023-03-01T03:48:03;101030.59;;;-0.28;100.00
21956;BME280;11142;49.930;8.606;2023-03-01T03:50:32;101033.16;;;-0.26;100.00
21956;BME280;11142;49.930;8.606;2023-03-01T03:53:01;101025.59;;;-0.44;100.00
21956;BME280;11142;49.930;8.606;2023-03-01T03:55:29;101024.75;;;-0.59;100.00
21956;BME280;11142;49.930;8.606;2023-03-01T03:57:59;101026.47;;;-0.55;100.00
21956;BME280;11142;49.930;8.606;2023-03-01T04:00:29;101017.06;;;-0.46;100.00
21956;BME280;11142;49.930;8.606;2023-03-01T04:02:57;101027.25;;;-0.40;100.00
21956;BME280;11142;49.930;8.606;2023-03-01T04:05:26;101031.50;;;-0.42;100.00
21956;BME280;11142;49.930;8.606;2023-03-01T04:07:57;101024.72;;;-0.45;100.00
21956;BME280;11142;49.930;8.606;2023-03-01T04:10:34;101025.56;;;-0.46;100.00
21956;BME280;11142;49.930;8.606;2023-03-01T04:13:03;101023.84;;;-0.39;100.00
21956;BME280;11142;49.930;8.606;2023-03-01T04:15:34;101021.31;;;-0.47;100.00
21956;BME280;11142;49.930;8.606;2023-03-01T04:18:02;101018.78;;;-0.50;100.00
21956;BME280;11142;49.930;8.606;2023-03-01T04:20:34;101026.47;;;-0.55;100.00
21956;BME280;11142;49.930;8.606;2023-03-01T04:23:03;101034.09;;;-0.51;100.00
21956;BME280;11142;49.930;8.606;2023-03-01T04:25:37;101034.94;;;-0.49;100.00
21956;BME280;11142;49.930;8.606;2023-03-01T04:28:06;101030.72;;;-0.58;100.00
21956;BME280;11142;49.930;8.606;2023-03-01T04:30:34;101030.72;;;-0.61;100.00
21956;BME280;11142;49.930;8.606;2023-03-01T04:33:05;101028.16;;;-0.58;100.00
21956;BME280;11142;49.930;8.606;2023-03-01T04:35:35;101028.16;;;-0.57;100.00
21956;BME280;11142;49.930;8.606;2023-03-01T04:38:04;101025.56;;;-0.43;100.00
21956;BME280;11142;49.930;8.606;2023-03-01T04:40:33;101024.75;;;-0.52;100.00
21956;BME280;11142;49.930;8.606;2023-03-01T04:43:01;101006.88;;;-0.49;100.00
21956;BME280;11142;49.930;8.606;2023-03-01T04:45:29;101014.53;;;-0.46;100.00
21956;BME280;11142;49.930;8.606;2023-03-01T04:47:57;101004.34;;;-0.48;100.00
21956;BME280;11142;49.930;8.606;2023-03-01T04:50:27;101011.94;;;-0.36;100.00
21956;BME280;11142;49.930;8.606;2023-03-01T04:52:56;101011.09;;;-0.36;100.00
21956;BME280;11142;49.930;8.606;2023-03-01T04:55:25;101000.06;;;-0.41;100.00
21956;BME280;11142;49.930;8.606;2023-03-01T04:57:54;101006.91;;;-0.52;100.00
21956;BME280;11142;49.930;8.606;2023-03-01T05:00:24;101004.38;;;-0.51;100.00
21956;BME280;11142;49.930;8.606;2023-03-01T05:02:53;101011.97;;;-0.49;100.00
21956;BME280;11142;49.930;8.606;2023-03-01T05:05:21;101014.53;;;-0.57;100.00
21956;BME280;11142;49.930;8.606;2023-03-01T05:07:55;101009.44;;;-0.52;100.00
21956;BME280;11142;49.930;8.606;2023-03-01T05:10:27;101008.63;;;-0.55;100.00
21956;BME280;11142;49.930;8.606;2023-03-01T05:12:56;101011.16;;;-0.56;100.00
21956;BME280;11142;49.930;8.606;2023-03-01T05:15:27;101014.56;;;-0.54;100.00
21956;BME280;11142;49.930;8.606;2023-03-01T05:17:56;101014.56;;;-0.54;100.00
21956;BME280;11142;49.930;8.606;2023-03-01T05:20:26;101015.38;;;-0.49;100.00
21956;BME280;11142;49.930;8.606;2023-03-01T05:22:55;101009.44;;;-0.49;100.00
21956;BME280;11142;49.930;8.606;2023-03-01T05:25:26;101010.28;;;-0.44;100.00
21956;BME280;11142;49.930;8.606;2023-03-01T05:28:00;101013.66;;;-0.44;100.00
21956;BME280;11142;49.930;8.606;2023-03-01T05:30:31;101007.75;;;-0.44;100.00
21956;BME280;11142;49.930;8.606;2023-03-01T05:33:00;101005.16;;;-0.43;100.00
21956;BME280;11142;49.930;8.606;2023-03-01T05:35:28;101005.16;;;-0.43;100.00
21956;BME280;11142;49.930;8.606;2023-03-01T05:37:59;100995.69;;;-0.18;100.00
21956;BME280;11142;49.930;8.606;2023-03-01T05:40:28;100999.16;;;-0.31;100.00
21956;BME280;11142;49.930;8.606;2023-03-01T05:42:56;101000.94;;;-0.45;100.00
21956;BME280;11142;49.930;8.606;2023-03-01T05:45:25;101008.56;;;-0.39;100.00
21956;BME280;11142;49.930;8.606;2023-03-01T05:47:53;101012.00;;;-0.48;100.00
21956;BME280;11142;49.930;8.606;2023-03-01T05:50:22;101011.09;;;-0.38;100.00
21956;BME280;11142;49.930;8.606;2023-03-01T05:52:55;101004.38;;;-0.54;100.00
21956;BME280;11142;49.930;8.606;2023-03-01T05:55:24;101003.47;;;-0.50;100.00
21956;BME280;11142;49.930;8.606;2023-03-01T05:57:56;101001.88;;;-0.68;100.00
21956;BME280;11142;49.930;8.606;2023-03-01T06:00:25;100990.00;;;-0.81;100.00
21956;BME280;11142;49.930;8.606;2023-03-01T06:02:53;101000.19;;;-0.81;100.00
21956;BME280;11142;49.930;8.606;2023-03-01T06:05:23;100995.94;;;-0.85;100.00
21956;BME280;11142;49.930;8.606;2023-03-01T06:07:51;100995.09;;;-0.88;100.00
21956;BME280;11142;49.930;8.606;2023-03-01T06:10:23;100997.63;;;-0.72;100.00
21956;BME280;11142;49.930;8.606;2023-03-01T06:12:53;100995.00;;;-0.52;100.00
21956;BME280;11142;49.930;8.606;2023-03-01T06:15:22;101002.63;;;-0.46;100.00
21956;BME280;11142;49.930;8.606;2023-03-01T06:17:54;101006.09;;;-0.62;100.00
21956;BME280;11142;49.930;8.606;2023-03-01T06:20:26;101001.84;;;-0.62;100.00
21956;BME280;11142;49.930;8.606;2023-03-01T06:22:54;101006.97;;;-0.75;100.00
21956;BME280;11142;49.930;8.606;2023-03-01T06:25:23;101005.25;;;-0.69;100.00
21956;BME280;11142;49.930;8.606;2023-03-01T06:27:52;101000.13;;;-0.60;100.00
21956;BME280;11142;49.930;8.606;2023-03-01T06:30:22;101003.53;;;-0.62;100.00
21956;BME280;11142;49.930;8.606;2023-03-01T06:32:52;101001.81;;;-0.52;100.00
21956;BME280;11142;49.930;8.606;2023-03-01T06:35:28;101003.53;;;-0.70;100.00
21956;BME280;11142;49.930;8.606;2023-03-01T06:37:57;100997.59;;;-0.63;100.00
21956;BME280;11142;49.930;8.606;2023-03-01T06:40:26;100999.25;;;-0.49;100.00
21956;BME280;11142;49.930;8.606;2023-03-01T06:42:53;101001.72;;;-0.33;100.00
21956;BME280;11142;49.930;8.606;2023-03-01T06:45:23;100993.06;;;-0.03;100.00
21956;BME280;11142;49.930;8.606;2023-03-01T06:48:01;100988.97;;;-0.31;100.00
21956;BME280;11142;49.930;8.606;2023-03-01T06:50:28;100994.16;;;-0.51;100.00
21956;BME280;11142;49.930;8.606;2023-03-01T06:52:56;100989.03;;;-0.45;100.00
21956;BME280;11142;49.930;8.606;2023-03-01T06:55:25;100994.88;;;-0.20;100.00
21956;BME280;11142;49.930;8.606;2023-03-01T06:57:56;100999.06;;;-0.12;100.00
21956;BME280;11142;49.930;8.606;2023-03-01T07:00:26;101003.28;;;-0.09;100.00
21956;BME280;11142;49.930;8.606;2023-03-01T07:02:55;100996.44;;;0.00;100.00
21956;BME280;11142;49.930;8.606;2023-03-01T07:05:25;101004.16;;;-0.10;100.00
21956;BME280;11142;49.930;8.606;2023-03-01T07:07:53;100993.88;;;0.00;100.00
21956;BME280;11142;49.930;8.606;2023-03-01T07:10:22;100994.72;;;0.06;100.00
21956;BME280;11142;49.930;8.606;2023-03-01T07:12:53;100995.50;;;0.18;100.00
21956;BME280;11142;49.930;8.606;2023-03-01T07:15:22;100996.31;;;0.25;100.00
21956;BME280;11142;49.930;8.606;2023-03-01T07:17:51;100994.28;;;0.65;100.00
21956;BME280;11142;49.930;8.606;2023-03-01T07:20:19;100994.31;;;0.63;100.00
21956;BME280;11142;49.930;8.606;2023-03-01T07:22:51;100985.50;;;0.94;100.00
21956;BME280;11142;49.930;8.606;2023-03-01T07:25:19;100981.97;;;1.06;100.00
21956;BME280;11142;49.930;8.606;2023-03-01T07:27:48;100988.13;;;0.88;100.00
21956;BME280;11142;49.930;8.606;2023-03-01T07:30:16;100983.75;;;0.96;100.00
21956;BME280;11142;49.930;8.606;2023-03-01T07:32:44;100982.56;;;1.29;100.00
21956;BME280;11142;49.930;8.606;2023-03-01T07:35:15;100980.72;;;1.40;100.00
21956;BME280;11142;49.930;8.606;2023-03-01T07:37:43;100987.84;;;1.13;100.00
21956;BME280;11142;49.930;8.606;2023-03-01T07:40:11;100977.22;;;1.49;100.00
21956;BME280;11142;49.930;8.606;2023-03-01T07:42:39;100981.41;;;1.53;100.00
21956;BME280;11142;49.930;8.606;2023-03-01T07:45:08;100980.09;;;1.23;100.00
21956;BME280;11142;49.930;8.606;2023-03-01T07:47:36;100976.69;;;1.21;100.00
21956;BME280;11142;49.930;8.606;2023-03-01T07:50:07;100976.06;;;1.73;100.00
21956;BME280;11142;49.930;8.606;2023-03-01T07:52:37;100966.34;;;1.32;100.00
21956;BME280;11142;49.930;8.606;2023-03-01T07:55:05;100971.25;;;1.48;100.00
21956;BME280;11142;49.930;8.606;2023-03-01T07:57:36;100965.25;;;1.49;100.00
21956;BME280;11142;49.930;8.606;2023-03-01T08:00:05;100965.94;;;1.64;100.00
21956;BME280;11142;49.930;8.606;2023-03-01T08:02:39;100965.91;;;1.65;100.00
21956;BME280;11142;49.930;8.606;2023-03-01T08:05:08;100961.91;;;2.08;96.80
21956;BME280;11142;49.930;8.606;2023-03-01T08:07:38;100962.63;;;2.18;94.47
21956;BME280;11142;49.930;8.606;2023-03-01T08:10:06;100971.25;;;2.09;95.64
21956;BME280;11142;49.930;8.606;2023-03-01T08:12:35;100969.22;;;1.73;97.06
21956;BME280;11142;49.930;8.606;2023-03-01T08:15:03;100964.53;;;2.04;96.72
21956;BME280;11142;49.930;8.606;2023-03-01T08:17:33;100966.09;;;2.16;94.39
21956;BME280;11142;49.930;8.606;2023-03-01T08:20:00;100960.50;;;2.43;91.45
21956;BME280;11142;49.930;8.606;2023-03-01T08:22:29;100957.03;;;2.47;91.22
21956;BME280;11142;49.930;8.606;2023-03-01T08:24:59;100961.63;;;2.77;88.30
21956;BME280;11142;49.930;8.606;2023-03-01T08:27:26;100951.63;;;2.63;86.79
21956;BME280;11142;49.930;8.606;2023-03-01T08:29:54;100960.84;;;2.74;89.29
21956;BME280;11142;49.930;8.606;2023-03-01T08:32:22;100953.84;;;2.83;86.52
21956;BME280;11142;49.930;8.606;2023-03-01T08:34:50;100948.81;;;2.77;85.48
21956;BME280;11142;49.930;8.606;2023-03-01T08:37:19;100944.66;;;2.72;87.44
21956;BME280;11142;49.930;8.606;2023-03-01T08:39:47;100947.81;;;2.37;88.63
21956;BME280;11142;49.930;8.606;2023-03-01T08:42:16;100934.84;;;2.95;86.44
21956;BME280;11142;49.930;8.606;2023-03-01T08:44:44;100945.78;;;3.46;83.22
21956;BME280;11142;49.930;8.606;2023-03-01T08:47:13;100947.91;;;3.26;80.60
21956;BME280;11142;49.930;8.606;2023-03-01T08:49:41;100946.97;;;3.30;81.21
21956;BME280;11142;49.930;8.606;2023-03-01T08:52:09;100953.44;;;3.47;78.94
21956;BME280;11142;49.930;8.606;2023-03-01T08:54:40;100950.78;;;3.09;81.40
21956;BME280;11142;49.930;8.606;2023-03-01T08:57:08;100945.66;;;3.10;81.60
21956;BME280;11142;49.930;8.606;2023-03-01T08:59:38;100935.81;;;3.32;80.81
21956;BME280;11142;49.930;8.606;2023-03-01T09:02:10;100937.28;;;3.01;82.28
21956;BME280;11142;49.930;8.606;2023-03-01T09:04:40;100942.84;;;3.22;80.78
21956;BME280;11142;49.930;8.606;2023-03-01T09:07:08;100933.78;;;3.05;82.76
21956;BME280;11142;49.930;8.606;2023-03-01T09:09:36;100925.69;;;3.26;82.61
21956;BME280;11142;49.930;8.606;2023-03-01T09:12:05;100915.75;;;3.09;82.42
21956;BME280;11142;49.930;8.606;2023-03-01T09:14:34;100926.28;;;3.37;80.86
21956;BME280;11142;49.930;8.606;2023-03-01T09:17:06;100924.59;;;3.76;79.18
21956;BME280;11142;49.930;8.606;2023-03-01T09:19:35;100917.44;;;3.52;79.14
21956;BME280;11142;49.930;8.606;2023-03-01T09:22:03;100900.94;;;3.63;79.92
21956;BME280;11142;49.930;8.606;2023-03-01T09:24:31;100903.22;;;3.77;78.03
21956;BME280;11142;49.930;8.606;2023-03-01T09:26:59;100901.53;;;4.11;75.03
21956;BME280;11142;49.930;8.606;2023-03-01T09:29:28;100909.97;;;4.16;74.22
21956;BME280;11142;49.930;8.606;2023-03-01T09:31:58;100905.81;;;4.45;72.52
21956;BME280;11142;49.930;8.606;2023-03-01T09:34:28;100902.03;;;4.25;73.41
21956;BME280;11142;49.930;8.606;2023-03-01T09:36:58;100906.88;;;4.70;72.92
21956;BME280;11142;49.930;8.606;2023-03-01T09:39:29;100904.13;;;5.08;70.89
21956;BME280;11142;49.930;8.606;2023-03-01T09:41:59;100899.00;;;5.38;68.61
21956;BME280;11142;49.930;8.606;2023-03-01T09:44:31;100896.53;;;5.34;66.97
21956;BME280;11142;49.930;8.606;2023-03-01T09:47:01;100895.97;;;5.23;67.84
21956;BME280;11142;49.930;8.606;2023-03-01T09:49:33;100901.97;;;5.81;64.38
21956;BME280;11142;49.930;8.606;2023-03-01T09:52:03;100881.84;;;5.94;63.88
21956;BME280;11142;49.930;8.606;2023-03-01T09:54:36;100880.03;;;5.97;61.88
21956;BME280;11142;49.930;8.606;2023-03-01T09:57:06;100889.72;;;6.41;59.35
21956;BME280;11142;49.930;8.606;2023-03-01T09:59:41;100893.09;;;6.93;58.76
21956;BME280;11142;49.930;8.606;2023-03-01T10:02:20;100876.66;;;8.07;53.53
21956;BME280;11142;49.930;8.606;2023-03-01T10:04:52;100889.81;;;8.65;50.81
21956;BME280;11142;49.930;8.606;2023-03-01T10:07:26;100890.50;;;7.84;50.67
21956;BME280;11142;49.930;8.606;2023-03-01T10:09:55;100887.97;;;7.61;53.31
21956;BME280;11142;49.930;8.606;2023-03-01T10:12:25;100877.03;;;6.85;56.20
21956;BME280;11142;49.930;8.606;2023-03-01T10:14:55;100869.31;;;8.40;51.19
21956;BME280;11142;49.930;8.606;2023-03-01T10:17:26;100870.81;;;8.66;49.57
21956;BME280;11142;49.930;8.606;2023-03-01T10:19:58;100872.47;;;8.67;49.58
21956;BME280;11142;49.930;8.606;2023-03-01T10:22:33;100872.28;;;9.47;48.44
21956;BME280;11142;49.930;8.606;2023-03-01T10:25:02;100869.31;;;10.61;44.72
21956;BME280;11142;49.930;8.606;2023-03-01T10:27:34;100868.13;;;11.32;42.65
21956;BME280;11142;49.930;8.606;2023-03-01T10:30:05;100874.28;;;10.98;43.14
21956;BME280;11142;49.930;8.606;2023-03-01T10:32:38;100859.81;;;10.27;43.94
21956;BME280;11142;49.930;8.606;2023-03-01T10:35:17;100860.25;;;10.52;44.76
21956;BME280;11142;49.930;8.606;2023-03-01T10:37:58;100863.47;;;10.23;43.80
21956;BME280;11142;49.930;8.606;2023-03-01T10:40:26;100851.00;;;9.22;46.75
21956;BME280;11142;49.930;8.606;2023-03-01T10:42:54;100845.16;;;8.80;48.54
21956;BME280;11142;49.930;8.606;2023-03-01T10:45:33;100834.06;;;8.96;46.10
21956;BME280;11142;49.930;8.606;2023-03-01T10:48:08;100838.66;;;8.31;48.47
21956;BME280;11142;49.930;8.606;2023-03-01T10:50:40;100841.53;;;8.23;50.25
21956;BME280;11142;49.930;8.606;2023-03-01T10:53:18;100839.56;;;8.89;47.77
21956;BME280;11142;49.930;8.606;2023-03-01T10:55:48;100832.28;;;10.06;46.33
21956;BME280;11142;49.930;8.606;2023-03-01T10:58:24;100827.88;;;10.08;44.89
21956;BME280;11142;49.930;8.606;2023-03-01T11:00:53;100820.66;;;9.61;46.37
21956;BME280;11142;49.930;8.606;2023-03-01T11:03:22;100821.72;;;10.45;44.21
21956;BME280;11142;49.930;8.606;2023-03-01T11:05:56;100818.72;;;10.01;44.87
21956;BME280;11142;49.930;8.606;2023-03-01T11:08:29;100813.59;;;9.46;45.73
21956;BME280;11142;49.930;8.606;2023-03-01T11:11:04;100817.28;;;8.66;46.88
21956;BME280;11142;49.930;8.606;2023-03-01T11:13:32;100803.19;;;10.35;44.81
21956;BME280;11142;49.930;8.606;2023-03-01T11:16:05;100792.94;;;9.81;45.83
21956;BME280;11142;49.930;8.606;2023-03-01T11:18:34;100799.38;;;10.42;43.50
21956;BME280;11142;49.930;8.606;2023-03-01T11:21:15;100796.84;;;9.89;44.43
21956;BME280;11142;49.930;8.606;2023-03-01T11:23:43;100785.78;;;11.80;41.48
21956;BME280;11142;49.930;8.606;2023-03-01T11:26:13;100792.06;;;11.91;40.12
21956;BME280;11142;49.930;8.606;2023-03-01T11:28:43;100788.53;;;8.53;45.71
21956;BME280;11142;49.930;8.606;2023-03-01T11:31:14;100790.22;;;8.54;46.10
21956;BME280;11142;49.930;8.606;2023-03-01T11:33:44;100776.97;;;8.81;47.03
21956;BME280;11142;49.930;8.606;2023-03-01T11:36:18;100769.84;;;11.86;41.87
21956;BME280;11142;49.930;8.606;2023-03-01T11:38:51;100768.66;;;12.77;38.39
21956;BME280;11142;49.930;8.606;2023-03-01T11:41:21;100766.25;;;10.13;41.87
21956;BME280;11142;49.930;8.606;2023-03-01T11:43:52;100768.84;;;9.79;43.04
21956;BME280;11142;49.930;8.606;2023-03-01T11:46:40;100762.53;;;10.19;43.16
21956;BME280;11142;49.930;8.606;2023-03-01T11:49:17;100752.28;;;12.33;40.21
21956;BME280;11142;49.930;8.606;2023-03-01T11:51:53;100747.50;;;13.76;36.86
21956;BME280;11142;49.930;8.606;2023-03-01T11:54:27;100753.41;;;12.57;36.96
21956;BME280;11142;49.930;8.606;2023-03-01T11:57:00;100751.16;;;12.94;37.32
21956;BME280;11142;49.930;8.606;2023-03-01T11:59:36;100742.06;;;13.27;35.88
21956;BME280;11142;49.930;8.606;2023-03-01T12:02:13;100732.47;;;13.67;35.74
21956;BME280;11142;49.930;8.606;2023-03-01T12:04:52;100743.75;;;14.94;34.19
21956;BME280;11142;49.930;8.606;2023-03-01T12:07:26;100737.28;;;16.17;31.39
21956;BME280;11142;49.930;8.606;2023-03-01T12:10:21;100726.72;;;15.25;31.07
21956;BME280;11142;49.930;8.606;2023-03-01T12:12:54;100723.91;;;15.39;31.84
21956;BME280;11142;49.930;8.606;2023-03-01T12:15:32;100719.16;;;15.33;31.30
21956;BME280;11142;49.930;8.606;2023-03-01T12:18:13;100717.28;;;14.24;31.51
21956;BME280;11142;49.930;8.606;2023-03-01T12:20:50;100724.66;;;14.81;31.43
21956;BME280;11142;49.930;8.606;2023-03-01T12:23:38;100705.91;;;15.00;30.78
21956;BME280;11142;49.930;8.606;2023-03-01T12:26:16;100704.53;;;16.00;29.54
21956;BME280;11142;49.930;8.606;2023-03-01T12:28:50;100701.72;;;15.68;29.59
21956;BME280;11142;49.930;8.606;2023-03-01T12:31:29;100705.88;;;14.76;29.51
21956;BME280;11142;49.930;8.606;2023-03-01T12:34:01;100687.31;;;13.92;31.29
21956;BME280;11142;49.930;8.606;2023-03-01T12:36:38;100664.44;;;15.30;29.99
21956;BME280;11142;49.930;8.606;2023-03-01T12:41:59;100654.00;;;12.92;32.58
21956;BME280;11142;49.930;8.606;2023-03-01T12:47:23;100646.81;;;13.87;32.34
21956;BME280;11142;49.930;8.606;2023-03-01T12:49:57;100638.13;;;15.09;30.55
21956;BME280;11142;49.930;8.606;2023-03-01T12:52:28;100637.16;;;15.45;29.74
21956;BME280;11142;49.930;8.606;2023-03-01T12:55:06;100624.06;;;15.10;29.71
21956;BME280;11142;49.930;8.606;2023-03-01T12:57:38;100642.72;;;13.57;32.34
21956;BME280;11142;49.930;8.606;2023-03-01T13:00:14;100616.44;;;14.36;31.80
21956;BME280;11142;49.930;8.606;2023-03-01T13:02:47;100635.66;;;13.47;32.84
21956;BME280;11142;49.930;8.606;2023-03-01T13:05:20;100630.59;;;14.57;31.07
21956;BME280;11142;49.930;8.606;2023-03-01T13:07:54;100639.28;;;12.91;32.75
21956;BME280;11142;49.930;8.606;2023-03-01T13:10:26;100628.75;;;14.21;32.44
21956;BME280;11142;49.930;8.606;2023-03-01T13:13:03;100618.94;;;14.74;31.25